createdAt,value
2022-10-01T00:02:26.537Z,100024.80
2022-10-01T00:04:57.670Z,100023.69
2022-10-01T00:07:28.972Z,100026.42
2022-10-01T00:09:59.711Z,100028.46
2022-10-01T00:12:30.349Z,100025.71
2022-10-01T00:15:04.358Z,100029.50
2022-10-01T00:17:37.267Z,100028.85
2022-10-01T00:20:14.587Z,100029.50
2022-10-01T00:22:46.181Z,100026.91
2022-10-01T00:25:16.948Z,100023.77
2022-10-01T00:27:49.263Z,100025.78
2022-10-01T00:30:21.683Z,100020.94
2022-10-01T00:32:56.155Z,100017.90
2022-10-01T00:35:27.195Z,100014.35
2022-10-01T00:37:57.987Z,100017.41
2022-10-01T00:40:28.759Z,100018.61
2022-10-01T00:42:59.637Z,100020.33
2022-10-01T00:45:31.092Z,100019.11
2022-10-01T00:48:02.387Z,100016.60
2022-10-01T00:50:36.041Z,100016.50
2022-10-01T00:53:12.105Z,100015.90
2022-10-01T00:55:46.113Z,100014.85
2022-10-01T00:58:18.347Z,100014.02
2022-10-01T01:00:50.267Z,100013.39
2022-10-01T01:03:21.282Z,100009.88
2022-10-01T01:05:51.982Z,100007.30
2022-10-01T01:08:22.987Z,100004.38
2022-10-01T01:11:05.077Z,100006.55
2022-10-01T01:13:45.466Z,100004.37
2022-10-01T01:16:21.759Z,100006.05
2022-10-01T01:19:01.671Z,100003.82
2022-10-01T01:21:33.820Z,100001.92
2022-10-01T01:24:30.949Z,99999.32
2022-10-01T01:27:28.333Z,99991.66
2022-10-01T01:30:04.220Z,99986.75
2022-10-01T01:32:46.461Z,99983.70
2022-10-01T01:35:24.114Z,99979.73
2022-10-01T01:38:01.807Z,99977.79
2022-10-01T01:40:36.828Z,99974.05
2022-10-01T01:43:11.432Z,99971.41
2022-10-01T01:45:43.353Z,99971.63
2022-10-01T01:48:15.003Z,99956.17
2022-10-01T01:50:52.955Z,99963.97
2022-10-01T01:53:24.639Z,99961.50
2022-10-01T01:55:57.240Z,99963.13
2022-10-01T01:58:28.269Z,99964.05
2022-10-01T02:00:59.059Z,99964.83
2022-10-01T02:03:34.961Z,99966.39
2022-10-01T02:06:18.034Z,99968.48
2022-10-01T02:08:58.273Z,99964.53
2022-10-01T02:11:38.211Z,99963.02
2022-10-01T02:14:22.018Z,99956.09
2022-10-01T02:17:02.076Z,99960.96
2022-10-01T02:19:37.289Z,99959.05
2022-10-01T02:22:12.884Z,99958.40
2022-10-01T02:24:49.202Z,99960.27
2022-10-01T02:27:24.635Z,99958.02
2022-10-01T02:29:58.546Z,99952.26
2022-10-01T02:32:32.183Z,99947.98
2022-10-01T02:35:05.471Z,99948.96
2022-10-01T02:37:38.571Z,99955.92
2022-10-01T02:40:16.810Z,99955.02
2022-10-01T02:42:51.367Z,99950.01
2022-10-01T02:45:25.288Z,99946.27
2022-10-01T02:47:58.871Z,99941.02
2022-10-01T02:50:35.617Z,99940.77
2022-10-01T02:53:10.860Z,99941.41
2022-10-01T02:55:44.195Z,99940.10
2022-10-01T02:58:15.141Z,99935.38
2022-10-01T03:00:45.883Z,99934.66
2022-10-01T03:03:16.579Z,99933.55
2022-10-01T03:05:47.480Z,99932.77
2022-10-01T03:08:19.471Z,99932.90
2022-10-01T03:10:50.453Z,99933.73
2022-10-01T03:13:23.446Z,99930.86
2022-10-01T03:15:54.213Z,99922.61
2022-10-01T03:18:24.918Z,99922.69
2022-10-01T03:20:55.624Z,99924.46
2022-10-01T03:23:26.262Z,99924.89
2022-10-01T03:25:56.919Z,99919.42
2022-10-01T03:28:27.646Z,99921.14
2022-10-01T03:31:09.231Z,99922.14
2022-10-01T03:33:41.171Z,99924.13
2022-10-01T03:36:11.933Z,99921.00
2022-10-01T03:38:42.671Z,99926.70
2022-10-01T03:41:13.326Z,99925.37
2022-10-01T03:43:43.924Z,99930.52
2022-10-01T03:46:14.757Z,99930.56
2022-10-01T03:48:45.511Z,99928.39
2022-10-01T03:51:19.779Z,99933.03
2022-10-01T03:53:51.017Z,99926.77
2022-10-01T03:56:21.785Z,99928.77
2022-10-01T03:58:52.877Z,99925.02
2022-10-01T04:01:24.233Z,99926.56
2022-10-01T04:03:55.236Z,99927.86
2022-10-01T04:06:26.026Z,99910.36
2022-10-01T04:08:56.654Z,99919.77
2022-10-01T04:11:27.937Z,99912.52
2022-10-01T04:13:58.913Z,99904.70
2022-10-01T04:16:29.968Z,99897.83
2022-10-01T04:19:00.748Z,99894.02
2022-10-01T04:21:31.842Z,99894.06
2022-10-01T04:24:05.187Z,99896.21
2022-10-01T04:26:35.813Z,99897.08
2022-10-01T04:29:06.450Z,99893.64
2022-10-01T04:31:37.375Z,99894.83
2022-10-01T04:34:08.771Z,99894.71
2022-10-01T04:36:39.531Z,99894.70
2022-10-01T04:39:10.134Z,99896.13
2022-10-01T04:41:41.136Z,99897.09
2022-10-01T04:44:11.887Z,99895.69
2022-10-01T04:46:42.639Z,99892.64
2022-10-01T04:49:13.401Z,99892.62
2022-10-01T04:51:44.194Z,99895.27
2022-10-01T04:54:15.037Z,99892.58
2022-10-01T04:56:45.634Z,99893.02
2022-10-01T04:59:16.276Z,99888.69
2022-10-01T05:01:47.164Z,99886.83
2022-10-01T05:04:18.471Z,99892.70
2022-10-01T05:06:49.198Z,99883.45
2022-10-01T05:09:19.831Z,99882.35
2022-10-01T05:11:52.098Z,99881.26
2022-10-01T05:14:22.806Z,99877.00
2022-10-01T05:16:53.461Z,99876.02
2022-10-01T05:19:27.869Z,99878.19
2022-10-01T05:21:58.811Z,99878.30
2022-10-01T05:24:29.785Z,99886.05
2022-10-01T05:27:00.527Z,99881.95
2022-10-01T05:29:31.882Z,99880.27
2022-10-01T05:32:05.805Z,99882.66
2022-10-01T05:34:36.949Z,99883.01
2022-10-01T05:37:08.153Z,99883.20
2022-10-01T05:39:39.044Z,99879.02
2022-10-01T05:42:09.731Z,99867.46
2022-10-01T05:44:46.123Z,99870.90
2022-10-01T05:47:17.760Z,99868.54
2022-10-01T05:49:48.411Z,99859.80
2022-10-01T05:52:19.048Z,99855.95
2022-10-01T05:54:50.062Z,99857.97
2022-10-01T05:57:20.783Z,99850.30
2022-10-01T05:59:51.395Z,99851.25
2022-10-01T06:02:22.031Z,99841.43
2022-10-01T06:04:52.897Z,99842.18
2022-10-01T06:07:23.701Z,99843.20
2022-10-01T06:09:54.371Z,99841.41
2022-10-01T06:12:24.989Z,99836.16
2022-10-01T06:14:55.612Z,99834.88
2022-10-01T06:17:26.206Z,99830.60
2022-10-01T06:19:57.394Z,99828.05
2022-10-01T06:22:28.278Z,99820.77
2022-10-01T06:24:59.507Z,99817.34
2022-10-01T06:27:30.200Z,99818.89
2022-10-01T06:30:00.796Z,99816.60
2022-10-01T06:32:34.783Z,99814.72
2022-10-01T06:35:07.638Z,99806.11
2022-10-01T06:37:40.905Z,99804.55
2022-10-01T06:40:12.930Z,99804.27
2022-10-01T06:42:52.730Z,99799.34
2022-10-01T06:45:27.389Z,99799.35
2022-10-01T06:47:59.727Z,99798.77
2022-10-01T06:50:31.021Z,99796.26
2022-10-01T06:53:02.814Z,99796.04
2022-10-01T06:55:35.835Z,99784.23
2022-10-01T06:58:08.950Z,99778.52
2022-10-01T07:00:40.034Z,99780.56
2022-10-01T07:03:14.003Z,99775.89
2022-10-01T07:05:44.861Z,99768.24
2022-10-01T07:08:15.900Z,99769.06
2022-10-01T07:10:46.653Z,99764.98
2022-10-01T07:13:20.310Z,99759.42
2022-10-01T07:15:50.968Z,99755.85
2022-10-01T07:18:21.696Z,99754.59
2022-10-01T07:20:52.398Z,99750.89
2022-10-01T07:23:24.371Z,99751.05
2022-10-01T07:25:55.297Z,99746.92
2022-10-01T07:28:26.991Z,99741.96
2022-10-01T07:31:05.106Z,99742.63
2022-10-01T07:33:35.960Z,99741.52
2022-10-01T07:36:08.555Z,99740.46
2022-10-01T07:38:37.794Z,99741.71
2022-10-01T07:41:08.510Z,99740.33
2022-10-01T07:43:41.503Z,99742.41
2022-10-01T07:46:12.388Z,99739.88
2022-10-01T07:48:46.485Z,99739.92
2022-10-01T07:51:17.833Z,99737.48
2022-10-01T07:53:48.517Z,99735.55
2022-10-01T07:56:19.119Z,99736.47
2022-10-01T07:58:50.695Z,99733.48
2022-10-01T08:01:21.423Z,99731.48
2022-10-01T08:03:53.183Z,99723.33
2022-10-01T08:06:25.833Z,99723.58
2022-10-01T08:08:56.667Z,99719.58
2022-10-01T08:11:27.892Z,99707.73
2022-10-01T08:13:58.629Z,99706.73
2022-10-01T08:16:30.261Z,99706.40
2022-10-01T08:19:00.923Z,99709.42
2022-10-01T08:21:32.283Z,99701.48
2022-10-01T08:24:04.044Z,99696.70
2022-10-01T08:26:35.248Z,99693.64
2022-10-01T08:29:05.901Z,99692.13
2022-10-01T08:31:37.106Z,99696.06
2022-10-01T08:34:08.187Z,99696.06
2022-10-01T08:36:38.833Z,99686.69
2022-10-01T08:39:09.559Z,99682.55
2022-10-01T08:41:49.492Z,99682.91
2022-10-01T08:44:22.744Z,99681.44
2022-10-01T08:46:56.258Z,99675.96
2022-10-01T08:49:31.774Z,99673.95
2022-10-01T08:52:09.686Z,99664.17
2022-10-01T08:54:46.932Z,99662.15
2022-10-01T08:57:22.823Z,99657.37
2022-10-01T08:59:57.426Z,99655.63
2022-10-01T09:02:30.104Z,99648.91
2022-10-01T09:05:03.907Z,99650.25
2022-10-01T09:07:59.099Z,99648.30
2022-10-01T09:10:42.841Z,99643.71
2022-10-01T09:13:45.798Z,99643.09
2022-10-01T09:16:26.542Z,99639.94
2022-10-01T09:19:13.569Z,99630.11
2022-10-01T09:21:56.946Z,99623.90
2022-10-01T09:24:40.664Z,99617.30
2022-10-01T09:27:16.833Z,99614.75
2022-10-01T09:29:53.434Z,99625.16
2022-10-01T09:32:28.586Z,99620.25
2022-10-01T09:35:05.916Z,99615.23
2022-10-01T09:37:44.467Z,99608.34
2022-10-01T09:40:16.235Z,99601.73
2022-10-01T09:42:48.590Z,99601.70
2022-10-01T09:45:20.551Z,99599.64
2022-10-01T09:47:54.246Z,99589.70
2022-10-01T09:50:32.215Z,99585.86
2022-10-01T09:53:03.713Z,99574.94
2022-10-01T09:55:40.352Z,99575.23
2022-10-01T09:58:14.502Z,99568.48
2022-10-01T10:00:48.374Z,99562.31
2022-10-01T10:03:30.014Z,99560.59
2022-10-01T10:06:02.716Z,99557.27
2022-10-01T10:08:37.711Z,99556.98
2022-10-01T10:11:11.954Z,99562.14
2022-10-01T10:13:50.399Z,99557.03
2022-10-01T10:16:26.365Z,99549.73
2022-10-01T10:19:02.216Z,99542.05
2022-10-01T10:21:35.965Z,99540.47
2022-10-01T10:24:22.294Z,99542.15
2022-10-01T10:26:58.057Z,99541.03
2022-10-01T10:29:31.534Z,99544.80
2022-10-01T10:32:08.423Z,99542.33
2022-10-01T10:34:43.870Z,99541.77
2022-10-01T10:37:18.231Z,99540.15
2022-10-01T10:39:52.474Z,99537.05
2022-10-01T10:42:24.288Z,99540.29
2022-10-01T10:44:59.800Z,99539.10
2022-10-01T10:47:32.211Z,99543.40
2022-10-01T10:50:07.058Z,99543.10
2022-10-01T10:52:42.634Z,99543.54
2022-10-01T10:55:26.932Z,99546.30
2022-10-01T10:58:08.723Z,99547.13
2022-10-01T11:00:48.311Z,99541.64
2022-10-01T11:03:22.534Z,99541.45
2022-10-01T11:05:56.323Z,99541.20
2022-10-01T11:08:29.023Z,99535.79
2022-10-01T11:11:14.105Z,99527.23
2022-10-01T11:14:08.430Z,99526.31
2022-10-01T11:16:54.480Z,99527.42
2022-10-01T11:19:41.470Z,99521.18
2022-10-01T11:22:36.616Z,99524.02
2022-10-01T11:25:25.450Z,99521.73
2022-10-01T11:28:07.987Z,99521.04
2022-10-01T11:30:50.151Z,99516.95
2022-10-01T11:33:31.864Z,99515.77
2022-10-01T11:36:06.054Z,99518.95
2022-10-01T11:38:52.210Z,99515.98
2022-10-01T11:41:30.062Z,99522.66
2022-10-01T11:44:06.187Z,99519.02
2022-10-01T11:46:45.673Z,99520.55
2022-10-01T11:49:38.255Z,99524.89
2022-10-01T11:52:18.749Z,99527.67
2022-10-01T11:55:19.962Z,99532.52
2022-10-01T11:58:16.995Z,99533.15
2022-10-01T12:01:00.303Z,99533.56
2022-10-01T12:03:43.239Z,99534.99
2022-10-01T12:06:15.163Z,99537.01
2022-10-01T12:08:53.911Z,99535.67
2022-10-01T12:11:31.027Z,99540.64
2022-10-01T12:14:10.276Z,99533.89
2022-10-01T12:16:47.273Z,99529.18
2022-10-01T12:19:24.994Z,99529.67
2022-10-01T12:22:00.136Z,99524.27
2022-10-01T12:24:36.374Z,99518.02
2022-10-01T12:27:27.930Z,99521.34
2022-10-01T12:30:04.256Z,99518.70
2022-10-01T12:32:48.954Z,99517.36
2022-10-01T12:35:35.774Z,99513.41
2022-10-01T12:38:18.623Z,99508.44
2022-10-01T12:40:58.490Z,99503.90
2022-10-01T12:43:46.116Z,99497.73
2022-10-01T12:46:27.469Z,99502.38
2022-10-01T12:49:08.784Z,99501.92
2022-10-01T12:51:45.151Z,99503.91
2022-10-01T12:54:47.658Z,99505.77
2022-10-01T12:57:33.174Z,99509.77
2022-10-01T13:00:12.511Z,99509.29
2022-10-01T13:03:27.938Z,99499.70
2022-10-01T13:06:15.912Z,99500.60
2022-10-01T13:08:58.947Z,99498.49
2022-10-01T13:11:44.951Z,99500.34
2022-10-01T13:14:18.906Z,99499.25
2022-10-01T13:16:58.376Z,99499.94
2022-10-01T13:19:36.565Z,99501.69
2022-10-01T13:22:16.498Z,99500.21
2022-10-01T13:24:53.785Z,99501.27
2022-10-01T13:27:31.306Z,99502.05
2022-10-01T13:30:04.256Z,99499.72
2022-10-01T13:32:38.494Z,99502.63
2022-10-01T13:35:30.418Z,99492.34
2022-10-01T13:38:14.822Z,99506.70
2022-10-01T13:40:46.254Z,99506.24
2022-10-01T13:43:21.612Z,99498.45
2022-10-01T13:45:54.725Z,99491.42
2022-10-01T13:48:31.681Z,99484.04
2022-10-01T13:51:06.786Z,99487.05
2022-10-01T13:53:47.361Z,99486.94
2022-10-01T13:56:31.018Z,99490.19
2022-10-01T13:59:01.953Z,99489.34
2022-10-01T14:01:40.987Z,99478.89
2022-10-01T14:04:22.617Z,99486.10
2022-10-01T14:06:57.905Z,99483.51
2022-10-01T14:09:32.389Z,99477.77
2022-10-01T14:12:25.182Z,99479.33
2022-10-01T14:15:16.957Z,99481.30
2022-10-01T14:17:51.207Z,99484.83
2022-10-01T14:20:25.381Z,99479.42
2022-10-01T14:23:20.022Z,99483.08
2022-10-01T14:26:08.451Z,99482.55
2022-10-01T14:28:51.673Z,99482.30
2022-10-01T14:31:30.146Z,99477.39
2022-10-01T14:34:21.808Z,99476.99
2022-10-01T14:36:55.136Z,99473.97
2022-10-01T14:39:27.470Z,99471.80
2022-10-01T14:41:59.315Z,99472.27
2022-10-01T14:44:32.755Z,99470.49
2022-10-01T14:47:13.387Z,99473.14
2022-10-01T14:49:44.289Z,99468.00
2022-10-01T14:52:22.627Z,99460.02
2022-10-01T14:55:00.123Z,99463.91
2022-10-01T14:57:35.099Z,99460.92
2022-10-01T15:00:10.718Z,99461.48
2022-10-01T15:02:49.991Z,99463.86
2022-10-01T15:05:27.758Z,99461.64
2022-10-01T15:07:59.735Z,99457.61
2022-10-01T15:10:30.910Z,99464.08
2022-10-01T15:13:01.759Z,99459.69
2022-10-01T15:15:40.623Z,99464.23
2022-10-01T15:18:15.570Z,99466.73
2022-10-01T15:20:56.544Z,99468.04
2022-10-01T15:23:29.173Z,99463.52
2022-10-01T15:26:01.943Z,99466.25
2022-10-01T15:28:34.365Z,99462.11
2022-10-01T15:31:07.807Z,99465.02
2022-10-01T15:33:40.956Z,99473.29
2022-10-01T15:36:17.491Z,99470.84
2022-10-01T15:38:51.051Z,99474.03
2022-10-01T15:41:32.085Z,99472.77
2022-10-01T15:44:06.442Z,99467.78
2022-10-01T15:46:37.455Z,99470.35
2022-10-01T15:49:19.655Z,99472.37
2022-10-01T15:52:09.284Z,99472.70
2022-10-01T15:54:41.824Z,99475.63
2022-10-01T15:57:15.942Z,99475.41
2022-10-01T15:59:48.017Z,99477.46
2022-10-01T16:02:22.043Z,99479.86
2022-10-01T16:04:56.892Z,99480.13
2022-10-01T16:07:34.871Z,99484.23
2022-10-01T16:10:27.671Z,99482.58
2022-10-01T16:12:58.909Z,99482.05
2022-10-01T16:15:31.828Z,99478.89
2022-10-01T16:18:03.565Z,99484.73
2022-10-01T16:20:43.905Z,99491.59
2022-10-01T16:23:44.054Z,99493.95
2022-10-01T16:26:40.117Z,99502.13
2022-10-01T16:29:24.060Z,99496.58
2022-10-01T16:31:56.939Z,99505.87
2022-10-01T16:34:30.190Z,99502.94
2022-10-01T16:37:01.214Z,99504.66
2022-10-01T16:39:32.920Z,99506.20
2022-10-01T16:42:22.970Z,99507.13
2022-10-01T16:44:54.880Z,99507.51
2022-10-01T16:47:25.526Z,99505.25
2022-10-01T16:49:56.243Z,99504.95
2022-10-01T16:52:27.119Z,99512.42
2022-10-01T16:54:57.725Z,99515.19
2022-10-01T16:57:28.535Z,99521.55
2022-10-01T16:59:59.252Z,99530.32
2022-10-01T17:02:30.170Z,99528.30
2022-10-01T17:05:01.037Z,99530.84
2022-10-01T17:07:31.820Z,99536.89
2022-10-01T17:10:02.580Z,99535.35
2022-10-01T17:12:33.270Z,99540.75
2022-10-01T17:15:05.802Z,99538.05
2022-10-01T17:17:35.447Z,99539.29
2022-10-01T17:20:06.965Z,99548.91
2022-10-01T17:22:39.065Z,99553.83
2022-10-01T17:25:11.663Z,99554.52
2022-10-01T17:27:42.586Z,99559.81
2022-10-01T17:30:14.992Z,99563.02
2022-10-01T17:32:46.693Z,99565.11
2022-10-01T17:35:18.353Z,99562.17
2022-10-01T17:37:49.102Z,99561.50
2022-10-01T17:40:20.527Z,99563.26
2022-10-01T17:42:51.288Z,99561.27
2022-10-01T17:45:22.174Z,99566.13
2022-10-01T17:47:52.882Z,99570.70
2022-10-01T17:50:24.370Z,99565.96
2022-10-01T17:52:55.189Z,99572.25
2022-10-01T17:55:25.883Z,99574.56
2022-10-01T17:57:57.246Z,99580.33
2022-10-01T18:00:27.978Z,99584.60
2022-10-01T18:03:01.168Z,99590.68
2022-10-01T18:05:32.035Z,99585.77
2022-10-01T18:08:03.353Z,99590.23
2022-10-01T18:10:34.119Z,99592.98
2022-10-01T18:13:05.196Z,99597.86
2022-10-01T18:15:36.102Z,99597.15
2022-10-01T18:21:01.627Z,99607.44
2022-10-01T18:23:32.420Z,99607.21
2022-10-01T18:26:03.304Z,99609.13
2022-10-01T18:28:34.963Z,99611.46
2022-10-01T18:31:20.355Z,99608.40
2022-10-01T18:33:53.696Z,99615.84
2022-10-01T18:36:47.975Z,99614.38
2022-10-01T18:39:24.975Z,99614.75
2022-10-01T18:41:57.378Z,99614.64
2022-10-01T18:44:28.379Z,99615.45
2022-10-01T18:47:11.200Z,99616.50
2022-10-01T18:50:15.206Z,99617.98
2022-10-01T18:52:57.307Z,99616.05
2022-10-01T18:56:12.078Z,99614.63
2022-10-01T18:59:11.168Z,99623.38
2022-10-01T19:01:54.168Z,99633.05
2022-10-01T19:05:07.651Z,99637.73
2022-10-01T19:07:58.667Z,99636.30
2022-10-01T19:10:38.400Z,99637.19
2022-10-01T19:13:19.129Z,99635.64
2022-10-01T19:16:02.517Z,99636.02
2022-10-01T19:18:51.892Z,99638.94
2022-10-01T19:21:30.629Z,99636.55
2022-10-01T19:24:35.515Z,99641.31
2022-10-01T19:27:19.039Z,99646.05
2022-10-01T19:30:01.337Z,99645.06
2022-10-01T19:32:39.134Z,99652.63
2022-10-01T19:35:19.104Z,99656.06
2022-10-01T19:37:55.129Z,99656.38
2022-10-01T19:40:36.606Z,99653.65
2022-10-01T19:43:12.410Z,99667.29
2022-10-01T19:45:49.454Z,99667.11
2022-10-01T19:48:24.823Z,99677.81
2022-10-01T19:51:03.447Z,99682.70
2022-10-01T19:53:38.158Z,99681.90
2022-10-01T19:56:12.150Z,99690.08
2022-10-01T19:58:43.158Z,99692.37
2022-10-01T20:01:20.786Z,99694.77
2022-10-01T20:03:57.403Z,99700.89
2022-10-01T20:06:34.331Z,99705.46
2022-10-01T20:09:11.672Z,99713.14
2022-10-01T20:11:49.988Z,99715.02
2022-10-01T20:14:48.795Z,99722.80
2022-10-01T20:17:25.410Z,99726.05
2022-10-01T20:20:02.313Z,99730.48
2022-10-01T20:22:40.903Z,99744.00
2022-10-01T20:25:15.354Z,99749.48
2022-10-01T20:27:58.890Z,99754.37
2022-10-01T20:30:34.094Z,99762.02
2022-10-01T20:33:17.198Z,99766.91
2022-10-01T20:36:02.861Z,99763.99
2022-10-01T20:38:40.839Z,99770.14
2022-10-01T20:41:18.095Z,99773.48
2022-10-01T20:43:52.436Z,99781.20
2022-10-01T20:46:32.418Z,99780.73
2022-10-01T20:49:06.559Z,99784.33
2022-10-01T20:51:46.068Z,99792.73
2022-10-01T20:54:23.119Z,99798.63
2022-10-01T20:57:02.950Z,99796.83
2022-10-01T20:59:38.693Z,99798.93
2022-10-01T21:02:26.603Z,99803.23
2022-10-01T21:05:04.310Z,99805.63
2022-10-01T21:07:41.624Z,99812.90
2022-10-01T21:10:26.323Z,99817.98
2022-10-01T21:13:00.815Z,99826.57
2022-10-01T21:15:47.068Z,99836.80
2022-10-01T21:18:28.624Z,99838.13
2022-10-01T21:21:11.521Z,99842.05
2022-10-01T21:24:06.017Z,99845.70
2022-10-01T21:26:48.528Z,99850.58
2022-10-01T21:29:34.125Z,99844.88
2022-10-01T21:32:16.538Z,99856.95
2022-10-01T21:35:00.226Z,99859.80
2022-10-01T21:37:35.163Z,99859.64
2022-10-01T21:40:22.198Z,99867.40
2022-10-01T21:43:02.889Z,99876.44
2022-10-01T21:45:43.693Z,99881.51
2022-10-01T21:48:34.006Z,99879.35
2022-10-01T21:51:15.701Z,99885.80
2022-10-01T21:54:28.550Z,99893.23
2022-10-01T21:57:10.335Z,99900.86
2022-10-01T21:59:57.256Z,99901.95
2022-10-01T22:02:39.316Z,99906.14
2022-10-01T22:05:23.916Z,99911.91
2022-10-01T22:07:58.285Z,99911.35
2022-10-01T22:10:35.318Z,99914.11
2022-10-01T22:13:15.202Z,99918.74
2022-10-01T22:15:48.355Z,99925.49
2022-10-01T22:18:29.179Z,99928.76
2022-10-01T22:21:01.956Z,99932.17
2022-10-01T22:23:38.241Z,99930.96
2022-10-01T22:26:16.194Z,99936.95
2022-10-01T22:28:51.810Z,99941.96
2022-10-01T22:31:27.925Z,99945.93
2022-10-01T22:34:04.422Z,99950.90
2022-10-01T22:36:42.586Z,99958.52
2022-10-01T22:39:19.182Z,99963.48
2022-10-01T22:41:54.020Z,99966.03
2022-10-01T22:44:28.529Z,99972.91
2022-10-01T22:47:35.723Z,99981.52
2022-10-01T22:50:20.901Z,99981.01
2022-10-01T22:53:07.865Z,99990.27
2022-10-01T22:55:47.853Z,99992.71
2022-10-01T22:58:35.534Z,99997.73
2022-10-01T23:01:16.826Z,100001.20
2022-10-01T23:03:57.256Z,100006.60
2022-10-01T23:06:39.492Z,100007.80
2022-10-01T23:09:16.865Z,100012.98
2022-10-01T23:11:55.241Z,100003.45
2022-10-01T23:14:46.883Z,100007.11
2022-10-01T23:17:23.216Z,100012.27
2022-10-01T23:20:05.178Z,100015.20
2022-10-01T23:22:50.832Z,100021.42
2022-10-01T23:25:33.240Z,100025.41
2022-10-01T23:28:16.880Z,100025.44
2022-10-01T23:30:59.467Z,100028.98
2022-10-01T23:33:52.000Z,100037.63
2022-10-01T23:36:33.772Z,100044.96
2022-10-01T23:39:35.919Z,100047.95
2022-10-01T23:42:15.861Z,100048.17
2022-10-01T23:44:51.472Z,100051.80
2022-10-01T23:47:27.292Z,100059.40
2022-10-01T23:50:00.217Z,100061.23
2022-10-01T23:52:39.831Z,100067.11
2022-10-01T23:55:36.076Z,100069.05
2022-10-01T23:58:12.221Z,100077.71
